createdAt,value
2022-08-03T00:02:18.066Z,7.40
2022-08-03T00:04:45.514Z,6.35
2022-08-03T00:07:15.711Z,5.45
2022-08-03T00:09:42.762Z,5.13
2022-08-03T00:12:10.105Z,5.45
2022-08-03T00:14:39.833Z,4.93
2022-08-03T00:17:07.037Z,8.68
2022-08-03T00:19:34.337Z,5.95
2022-08-03T00:22:01.493Z,5.57
2022-08-03T00:24:28.641Z,5.43
2022-08-03T00:26:55.825Z,7.32
2022-08-03T00:29:23.036Z,6.30
2022-08-03T00:31:52.465Z,6.35
2022-08-03T00:34:29.870Z,6.68
2022-08-03T00:37:03.960Z,5.13
2022-08-03T00:39:31.045Z,8.75
2022-08-03T00:42:02.391Z,6.65
2022-08-03T00:44:29.406Z,3.88
2022-08-03T00:46:56.468Z,7.80
2022-08-03T00:49:24.234Z,5.25
2022-08-03T00:51:51.485Z,5.20
2022-08-03T00:54:19.033Z,9.20
2022-08-03T00:56:59.456Z,7.03
2022-08-03T00:59:30.347Z,4.50
2022-08-03T01:01:58.422Z,6.72
2022-08-03T01:04:25.517Z,10.95
2022-08-03T01:07:15.568Z,7.88
2022-08-03T01:10:14.483Z,6.47
2022-08-03T01:12:57.956Z,9.57
2022-08-03T01:15:44.983Z,9.07
2022-08-03T01:18:18.846Z,7.45
2022-08-03T01:20:49.621Z,8.25
2022-08-03T01:23:46.256Z,4.97
2022-08-03T01:26:28.816Z,7.78
2022-08-03T01:29:52.996Z,11.73
2022-08-03T01:32:59.599Z,6.78
2022-08-03T01:35:28.332Z,6.22
2022-08-03T01:38:04.600Z,6.75
2022-08-03T01:40:34.576Z,5.68
2022-08-03T01:43:04.646Z,8.77
2022-08-03T01:45:34.025Z,7.40
2022-08-03T01:48:02.887Z,9.18
2022-08-03T01:50:31.301Z,6.07
2022-08-03T01:52:59.401Z,10.10
2022-08-03T01:55:31.915Z,8.65
2022-08-03T01:58:05.535Z,9.32
2022-08-03T02:00:37.327Z,5.85
2022-08-03T02:03:13.361Z,6.38
2022-08-03T02:05:45.626Z,11.35
2022-08-03T02:08:18.305Z,5.93
2022-08-03T02:10:47.536Z,6.30
2022-08-03T02:13:17.188Z,7.78
2022-08-03T02:15:44.964Z,8.05
2022-08-03T02:18:13.300Z,6.95
2022-08-03T02:20:43.536Z,10.00
2022-08-03T02:23:10.821Z,7.93
2022-08-03T02:25:46.096Z,10.30
2022-08-03T02:28:20.027Z,11.45
2022-08-03T02:30:54.299Z,8.27
2022-08-03T02:33:30.803Z,9.55
2022-08-03T02:36:00.206Z,7.88
2022-08-03T02:38:33.200Z,5.95
2022-08-03T02:41:07.287Z,10.82
2022-08-03T02:43:57.702Z,8.02
2022-08-03T02:46:28.958Z,7.63
2022-08-03T02:48:57.662Z,6.45
2022-08-03T02:51:28.248Z,6.55
2022-08-03T02:53:57.940Z,6.70
2022-08-03T02:56:26.020Z,9.10
2022-08-03T02:58:54.828Z,8.13
2022-08-03T03:01:23.253Z,7.40
2022-08-03T03:03:52.365Z,8.35
2022-08-03T03:06:21.420Z,9.25
2022-08-03T03:08:52.522Z,8.52
2022-08-03T03:11:28.062Z,7.32
2022-08-03T03:13:58.438Z,7.25
2022-08-03T03:16:27.099Z,6.93
2022-08-03T03:19:03.155Z,7.38
2022-08-03T03:21:40.471Z,7.45
2022-08-03T03:24:09.722Z,6.00
2022-08-03T03:26:42.282Z,10.80
2022-08-03T03:29:09.961Z,5.20
2022-08-03T03:31:37.380Z,7.50
2022-08-03T03:34:05.100Z,8.15
2022-08-03T03:36:33.940Z,11.63
2022-08-03T03:39:15.623Z,9.40
2022-08-03T03:41:43.876Z,6.43
2022-08-03T03:44:10.963Z,9.23
2022-08-03T03:46:39.323Z,12.00
2022-08-03T03:49:07.443Z,7.68
2022-08-03T03:51:35.015Z,9.50
2022-08-03T03:54:05.767Z,8.00
2022-08-03T03:56:33.501Z,5.75
2022-08-03T03:59:00.677Z,7.63
2022-08-03T04:01:29.124Z,6.63
2022-08-03T04:03:56.122Z,5.72
2022-08-03T04:06:41.938Z,7.75
2022-08-03T04:09:50.855Z,6.65
2022-08-03T04:12:19.710Z,5.93
2022-08-03T04:14:51.017Z,4.53
2022-08-03T04:17:19.880Z,5.35
2022-08-03T04:19:51.460Z,5.82
2022-08-03T04:22:25.501Z,10.52
2022-08-03T04:25:03.936Z,10.68
2022-08-03T04:27:36.945Z,9.07
2022-08-03T04:30:09.136Z,6.82
2022-08-03T04:32:41.871Z,6.93
2022-08-03T04:35:12.603Z,7.88
2022-08-03T04:37:46.044Z,8.70
2022-08-03T04:40:30.724Z,7.25
2022-08-03T04:43:00.055Z,6.38
2022-08-03T04:45:31.663Z,8.70
2022-08-03T04:47:59.588Z,8.38
2022-08-03T04:50:30.561Z,7.07
2022-08-03T04:53:07.310Z,7.80
2022-08-03T04:55:36.482Z,8.68
2022-08-03T04:58:04.904Z,9.35
2022-08-03T05:00:32.184Z,6.32
2022-08-03T05:02:59.336Z,8.60
2022-08-03T05:05:26.572Z,11.27
2022-08-03T05:08:13.774Z,6.57
2022-08-03T05:10:41.039Z,11.25
2022-08-03T05:13:12.029Z,7.40
2022-08-03T05:15:43.253Z,6.65
2022-08-03T05:18:14.006Z,9.93
2022-08-03T05:20:41.665Z,11.27
2022-08-03T05:23:08.823Z,6.82
2022-08-03T05:25:36.010Z,12.45
2022-08-03T05:28:07.049Z,7.53
2022-08-03T05:30:34.644Z,7.35
2022-08-03T05:33:05.179Z,8.60
2022-08-03T05:35:55.881Z,7.32
2022-08-03T05:38:33.106Z,8.23
2022-08-03T05:41:22.366Z,8.32
2022-08-03T05:43:53.803Z,15.82
2022-08-03T05:46:24.849Z,9.50
2022-08-03T05:48:55.113Z,10.10
2022-08-03T05:51:22.304Z,8.88
2022-08-03T05:53:49.719Z,7.18
2022-08-03T05:56:17.128Z,11.68
2022-08-03T05:58:46.496Z,7.55
2022-08-03T06:01:15.002Z,10.20
2022-08-03T06:03:42.242Z,10.63
2022-08-03T06:06:09.541Z,9.00
2022-08-03T06:08:36.528Z,6.55
2022-08-03T06:11:04.778Z,8.98
2022-08-03T06:13:32.184Z,8.82
2022-08-03T06:15:59.352Z,8.43
2022-08-03T06:18:26.711Z,11.38
2022-08-03T06:20:54.267Z,10.05
2022-08-03T06:23:52.574Z,10.95
2022-08-03T06:26:12.276Z,5.65
2022-08-03T06:28:53.165Z,7.82
2022-08-03T06:31:33.210Z,8.60
2022-08-03T06:34:31.357Z,11.07
2022-08-03T06:36:53.000Z,9.70
2022-08-03T06:39:23.458Z,13.10
2022-08-03T06:41:51.621Z,10.57
2022-08-03T06:44:22.771Z,10.30
2022-08-03T06:46:49.799Z,7.13
2022-08-03T06:49:17.174Z,9.40
2022-08-03T06:52:04.147Z,13.45
2022-08-03T06:54:33.211Z,12.40
2022-08-03T06:57:03.387Z,12.60
2022-08-03T07:00:07.337Z,12.55
2022-08-03T07:02:26.815Z,11.00
2022-08-03T07:04:55.650Z,13.88
2022-08-03T07:07:22.658Z,11.93
2022-08-03T07:09:56.520Z,8.85
2022-08-03T07:12:26.323Z,9.60
2022-08-03T07:14:58.058Z,10.45
2022-08-03T07:17:28.616Z,13.20
2022-08-03T07:19:55.718Z,14.27
2022-08-03T07:22:22.881Z,14.30
2022-08-03T07:24:49.911Z,8.52
2022-08-03T07:27:17.233Z,11.52
2022-08-03T07:29:44.385Z,12.60
2022-08-03T07:32:11.592Z,10.43
2022-08-03T07:34:38.662Z,11.48
2022-08-03T07:37:05.669Z,12.57
2022-08-03T07:39:32.827Z,14.95
2022-08-03T07:41:59.900Z,11.23
2022-08-03T07:44:27.064Z,10.02
2022-08-03T07:46:55.165Z,12.75
2022-08-03T07:49:23.799Z,10.10
2022-08-03T07:52:10.994Z,14.27
2022-08-03T07:54:38.125Z,11.00
2022-08-03T07:57:05.277Z,8.68
2022-08-03T07:59:56.431Z,12.07
2022-08-03T08:05:29.657Z,14.87
2022-08-03T08:07:57.062Z,13.23
2022-08-03T08:10:28.732Z,11.75
2022-08-03T08:12:56.759Z,10.15
2022-08-03T08:15:26.875Z,8.30
2022-08-03T08:17:59.256Z,10.65
2022-08-03T08:20:31.364Z,11.82
2022-08-03T08:23:19.904Z,9.50
2022-08-03T08:25:54.530Z,11.63
2022-08-03T08:28:30.081Z,12.95
2022-08-03T08:30:59.118Z,13.18
2022-08-03T08:33:37.212Z,12.18
2022-08-03T08:36:15.387Z,10.85
2022-08-03T08:38:44.861Z,13.75
2022-08-03T08:41:16.484Z,13.52
2022-08-03T08:43:43.765Z,11.60
2022-08-03T08:46:22.921Z,17.15
2022-08-03T08:48:55.642Z,11.05
2022-08-03T08:51:52.699Z,12.30
2022-08-03T08:54:18.729Z,12.15
2022-08-03T08:56:46.758Z,13.43
2022-08-03T08:59:14.788Z,13.25
2022-08-03T09:01:41.875Z,10.93
2022-08-03T09:04:09.598Z,12.00
2022-08-03T09:06:36.892Z,12.13
2022-08-03T09:09:06.365Z,12.95
2022-08-03T09:11:54.534Z,12.75
2022-08-03T09:14:33.669Z,15.82
2022-08-03T09:17:04.691Z,14.32
2022-08-03T09:19:34.022Z,10.15
2022-08-03T09:22:17.423Z,11.05
2022-08-03T09:25:23.242Z,10.88
2022-08-03T09:27:50.437Z,14.60
2022-08-03T09:30:34.508Z,12.02
2022-08-03T09:33:10.546Z,12.30
2022-08-03T09:36:04.538Z,11.75
2022-08-03T09:38:39.021Z,11.95
2022-08-03T09:41:21.076Z,9.80
2022-08-03T09:43:48.672Z,9.80
2022-08-03T09:46:15.789Z,12.65
2022-08-03T09:48:42.804Z,12.15
2022-08-03T09:51:14.307Z,11.48
2022-08-03T09:54:01.761Z,14.63
2022-08-03T09:56:58.749Z,12.82
2022-08-03T09:59:32.366Z,12.18
2022-08-03T10:02:01.757Z,13.23
2022-08-03T10:04:29.458Z,11.50
2022-08-03T10:07:06.421Z,9.65
2022-08-03T10:09:34.004Z,15.52
2022-08-03T10:12:13.207Z,13.55
2022-08-03T10:14:42.254Z,14.50
2022-08-03T10:17:12.638Z,14.88
2022-08-03T10:19:41.310Z,20.10
2022-08-03T10:22:15.200Z,13.93
2022-08-03T10:25:07.582Z,13.68
2022-08-03T10:27:41.057Z,11.05
2022-08-03T10:30:13.946Z,14.57
2022-08-03T10:33:50.075Z,11.55
2022-08-03T10:36:01.631Z,13.82
2022-08-03T10:38:46.046Z,16.50
2022-08-03T10:41:14.160Z,10.60
2022-08-03T10:43:53.674Z,9.55
2022-08-03T10:46:21.867Z,16.05
2022-08-03T10:48:53.867Z,15.73
2022-08-03T10:51:21.812Z,13.70
2022-08-03T10:53:54.987Z,13.00
2022-08-03T10:56:50.566Z,12.57
2022-08-03T10:59:46.228Z,13.70
2022-08-03T11:02:14.922Z,15.27
2022-08-03T11:04:47.158Z,14.20
2022-08-03T11:07:17.725Z,14.07
2022-08-03T11:09:57.690Z,15.90
2022-08-03T11:12:31.148Z,11.57
2022-08-03T11:15:09.844Z,12.13
2022-08-03T11:17:46.505Z,17.73
2022-08-03T11:20:53.561Z,11.23
2022-08-03T11:24:05.224Z,13.43
2022-08-03T11:26:41.911Z,15.05
2022-08-03T11:29:30.159Z,12.98
2022-08-03T11:31:57.502Z,16.95
2022-08-03T11:34:25.299Z,16.02
2022-08-03T11:37:28.569Z,12.65
2022-08-03T11:39:57.291Z,14.98
2022-08-03T11:42:24.673Z,14.57
2022-08-03T11:44:57.783Z,15.80
2022-08-03T11:47:27.917Z,14.57
2022-08-03T11:49:59.123Z,14.77
2022-08-03T11:52:28.776Z,18.00
2022-08-03T11:54:56.707Z,12.50
2022-08-03T11:59:11.018Z,13.80
2022-08-03T12:00:29.702Z,13.57
2022-08-03T12:02:58.625Z,12.93
2022-08-03T12:05:51.652Z,14.80
2022-08-03T12:08:32.456Z,15.95
2022-08-03T12:11:04.511Z,16.13
2022-08-03T12:14:10.683Z,16.35
2022-08-03T12:16:30.301Z,14.15
2022-08-03T12:18:59.319Z,14.57
2022-08-03T12:21:26.749Z,12.98
2022-08-03T12:24:00.297Z,15.13
2022-08-03T12:26:58.105Z,14.85
2022-08-03T12:29:27.247Z,11.00
2022-08-03T12:31:56.083Z,10.18
2022-08-03T12:34:23.482Z,14.60
2022-08-03T12:37:22.109Z,21.55
2022-08-03T12:40:02.566Z,11.75
2022-08-03T12:42:37.150Z,10.52
2022-08-03T12:45:28.981Z,12.90
2022-08-03T12:48:01.287Z,12.88
2022-08-03T12:50:33.466Z,11.02
2022-08-03T12:53:03.180Z,14.38
2022-08-03T12:55:57.284Z,11.40
2022-08-03T12:58:36.048Z,12.57
2022-08-03T13:01:09.677Z,11.30
2022-08-03T13:03:50.491Z,15.13
2022-08-03T13:06:25.345Z,14.25
2022-08-03T13:09:08.506Z,11.40
2022-08-03T13:11:55.809Z,9.93
2022-08-03T13:14:23.689Z,11.48
2022-08-03T13:16:51.231Z,14.75
2022-08-03T13:19:18.371Z,11.57
2022-08-03T13:21:53.849Z,12.43
2022-08-03T13:24:33.234Z,11.18
2022-08-03T13:27:21.923Z,11.85
2022-08-03T13:29:48.225Z,14.32
2022-08-03T13:32:15.390Z,10.77
2022-08-03T13:34:42.621Z,9.40
2022-08-03T13:37:10.302Z,12.48
2022-08-03T13:39:57.598Z,16.50
2022-08-03T13:42:29.516Z,8.13
2022-08-03T13:44:56.747Z,12.07
2022-08-03T13:47:24.092Z,12.70
2022-08-03T13:49:54.348Z,13.05
2022-08-03T13:52:31.973Z,11.73
2022-08-03T13:54:59.876Z,14.05
2022-08-03T13:58:04.488Z,14.60
2022-08-03T14:00:26.445Z,12.98
2022-08-03T14:03:09.533Z,8.13
2022-08-03T14:05:41.820Z,12.43
2022-08-03T14:08:09.328Z,8.30
2022-08-03T14:10:39.754Z,11.88
2022-08-03T14:13:07.527Z,12.35
2022-08-03T14:15:37.648Z,12.07
2022-08-03T14:18:07.402Z,15.18
2022-08-03T14:20:47.905Z,11.00
2022-08-03T14:23:17.787Z,10.38
2022-08-03T14:25:51.531Z,13.63
2022-08-03T14:28:25.081Z,11.75
2022-08-03T14:30:53.860Z,10.00
2022-08-03T14:33:22.383Z,17.58
2022-08-03T14:35:49.874Z,8.93
2022-08-03T14:38:20.840Z,11.30
2022-08-03T14:40:48.751Z,11.98
2022-08-03T14:43:18.097Z,13.85
2022-08-03T14:45:45.342Z,12.95
2022-08-03T14:50:33.158Z,11.65
2022-08-03T14:50:59.904Z,10.88
2022-08-03T14:53:28.796Z,9.25
2022-08-03T14:55:56.098Z,10.98
2022-08-03T14:58:25.957Z,15.15
2022-08-03T15:00:55.450Z,9.30
2022-08-03T15:03:25.137Z,7.13
2022-08-03T15:05:56.925Z,11.75
2022-08-03T15:08:26.231Z,10.25
2022-08-03T15:10:54.735Z,11.85
2022-08-03T15:13:22.221Z,9.18
2022-08-03T15:15:50.020Z,11.07
2022-08-03T15:18:17.214Z,12.82
2022-08-03T15:20:46.234Z,12.23
2022-08-03T15:23:15.917Z,9.85
2022-08-03T15:26:04.318Z,10.20
2022-08-03T15:28:32.735Z,9.90
2022-08-03T15:31:00.697Z,14.50
2022-08-03T15:33:28.660Z,9.73
2022-08-03T15:35:57.175Z,11.68
2022-08-03T15:38:25.758Z,6.47
2022-08-03T15:40:55.016Z,7.55
2022-08-03T15:43:23.582Z,8.77
2022-08-03T15:46:12.752Z,6.57
2022-08-03T15:48:39.432Z,9.52
2022-08-03T15:51:10.003Z,6.53
2022-08-03T15:53:39.276Z,6.40
2022-08-03T15:56:12.114Z,6.43
2022-08-03T15:59:04.450Z,8.38
2022-08-03T16:01:29.101Z,4.82
2022-08-03T16:03:57.301Z,8.30
2022-08-03T16:06:29.867Z,6.70
2022-08-03T16:09:23.980Z,9.93
2022-08-03T16:11:53.873Z,13.85
2022-08-03T16:14:32.049Z,8.85
2022-08-03T16:17:00.621Z,9.50
2022-08-03T16:19:28.146Z,9.35
2022-08-03T16:21:55.339Z,8.27
2022-08-03T16:24:27.807Z,9.65
2022-08-03T16:26:56.696Z,6.90
2022-08-03T16:29:24.270Z,8.50
2022-08-03T16:31:53.002Z,8.70
2022-08-03T16:34:21.054Z,7.55
2022-08-03T16:36:48.249Z,8.25
2022-08-03T16:39:15.567Z,8.07
2022-08-03T16:41:53.975Z,5.93
2022-08-03T16:44:30.989Z,6.50
2022-08-03T16:46:59.676Z,5.75
2022-08-03T16:49:55.508Z,8.75
2022-08-03T16:52:16.781Z,8.00
2022-08-03T16:54:50.551Z,7.47
2022-08-03T16:57:56.480Z,7.70
2022-08-03T17:00:32.727Z,7.03
2022-08-03T17:03:04.100Z,7.57
2022-08-03T17:05:32.654Z,8.15
2022-08-03T17:08:15.691Z,12.98
2022-08-03T17:10:45.299Z,8.80
2022-08-03T17:13:21.431Z,9.63
2022-08-03T17:16:00.621Z,5.80
2022-08-03T17:18:38.374Z,7.57
2022-08-03T17:21:10.532Z,7.93
2022-08-03T17:24:00.057Z,7.18
2022-08-03T17:26:30.278Z,11.23
2022-08-03T17:29:12.618Z,10.45
2022-08-03T17:31:48.779Z,6.80
2022-08-03T17:34:19.118Z,7.60
2022-08-03T17:37:03.767Z,7.22
2022-08-03T17:39:57.108Z,3.20
2022-08-03T17:42:31.027Z,7.18
2022-08-03T17:45:07.677Z,9.45
2022-08-03T17:47:41.935Z,5.40
2022-08-03T17:53:23.784Z,5.03
2022-08-03T17:56:42.649Z,6.28
2022-08-03T17:59:50.917Z,10.73
2022-08-03T18:02:47.735Z,5.20
2022-08-03T18:05:22.445Z,7.43
2022-08-03T18:07:59.479Z,9.52
2022-08-03T18:10:34.559Z,7.93
2022-08-03T18:13:14.737Z,6.40
2022-08-03T18:16:01.003Z,7.03
2022-08-03T18:18:43.192Z,4.32
2022-08-03T18:21:16.670Z,5.47
2022-08-03T18:23:46.066Z,4.88
2022-08-03T18:26:19.120Z,6.47
2022-08-03T18:28:49.119Z,4.35
2022-08-03T18:31:33.156Z,6.75
2022-08-03T18:34:16.630Z,3.78
2022-08-03T18:36:48.977Z,7.18
2022-08-03T18:39:16.835Z,22.30
2022-08-03T18:41:46.988Z,13.40
2022-08-03T18:44:52.855Z,8.38
2022-08-03T18:47:51.640Z,3.92
2022-08-03T18:50:52.282Z,5.43
2022-08-03T18:54:06.264Z,8.73
2022-08-03T18:56:52.106Z,6.97
2022-08-03T18:59:41.894Z,7.78
2022-08-03T19:02:34.879Z,6.32
2022-08-03T19:05:10.978Z,7.72
2022-08-03T19:07:40.840Z,5.53
2022-08-03T19:10:15.760Z,7.05
2022-08-03T19:12:51.759Z,8.55
2022-08-03T19:15:36.406Z,4.90
2022-08-03T19:18:11.260Z,7.80
2022-08-03T19:20:41.419Z,6.35
2022-08-03T19:25:43.951Z,5.25
2022-08-03T19:28:11.237Z,5.97
2022-08-03T19:30:46.169Z,4.95
2022-08-03T19:33:21.560Z,9.00
2022-08-03T19:35:55.654Z,6.47
2022-08-03T19:38:28.465Z,11.13
2022-08-03T19:43:57.696Z,7.28
2022-08-03T19:46:31.185Z,7.78
2022-08-03T19:49:15.372Z,6.07
2022-08-03T19:51:58.972Z,7.93
2022-08-03T19:54:53.558Z,5.40
2022-08-03T19:57:25.164Z,5.47
2022-08-03T19:59:57.164Z,6.85
2022-08-03T20:02:27.229Z,6.60
2022-08-03T20:05:01.169Z,8.40
2022-08-03T20:07:33.498Z,5.78
2022-08-03T20:10:08.898Z,6.20
2022-08-03T20:12:39.435Z,4.85
2022-08-03T20:15:07.829Z,11.93
2022-08-03T20:17:55.204Z,6.88
2022-08-03T20:20:34.001Z,7.63
2022-08-03T20:23:16.680Z,7.93
2022-08-03T20:25:58.571Z,6.82
2022-08-03T20:28:50.041Z,4.88
2022-08-03T20:31:21.628Z,4.47
2022-08-03T20:33:53.452Z,4.95
2022-08-03T20:36:20.705Z,6.75
2022-08-03T20:38:49.046Z,6.47
2022-08-03T20:41:17.710Z,5.75
2022-08-03T20:43:46.001Z,6.68
2022-08-03T20:46:32.659Z,8.20
2022-08-03T20:49:06.209Z,6.68
2022-08-03T20:51:50.140Z,11.73
2022-08-03T20:54:30.866Z,6.88
2022-08-03T20:57:04.190Z,8.98
2022-08-03T20:59:47.057Z,7.47
2022-08-03T21:02:29.008Z,5.68
2022-08-03T21:05:02.979Z,6.05
2022-08-03T21:08:03.750Z,5.80
2022-08-03T21:10:28.772Z,7.97
2022-08-03T21:13:12.763Z,6.47
2022-08-03T21:13:16.225Z,3.78
2022-08-03T21:16:04.797Z,6.22
2022-08-03T21:18:43.521Z,5.78
2022-08-03T21:21:17.916Z,4.88
2022-08-03T21:23:49.764Z,8.68
2022-08-03T21:26:26.113Z,7.93
2022-08-03T21:28:56.537Z,8.27
2022-08-03T21:31:26.620Z,5.57
2022-08-03T21:33:57.219Z,8.32
2022-08-03T21:36:27.754Z,6.40
2022-08-03T21:38:57.272Z,6.97
2022-08-03T21:41:32.030Z,6.03
2022-08-03T21:44:00.921Z,6.65
2022-08-03T21:46:35.088Z,7.18
2022-08-03T21:50:05.702Z,6.35
2022-08-03T21:51:59.380Z,7.85
2022-08-03T21:54:35.842Z,5.50
2022-08-03T21:57:08.414Z,7.18
2022-08-03T21:59:38.141Z,8.27
2022-08-03T22:02:16.450Z,5.47
2022-08-03T22:04:56.304Z,9.07
2022-08-03T22:07:27.376Z,5.10
2022-08-03T22:09:57.233Z,6.35
2022-08-03T22:12:28.855Z,4.63
2022-08-03T22:15:00.820Z,6.05
2022-08-03T22:17:54.573Z,4.32
2022-08-03T22:20:20.550Z,6.10
2022-08-03T22:22:57.110Z,6.25
2022-08-03T22:25:29.446Z,5.13
2022-08-03T22:28:00.003Z,7.10
2022-08-03T22:30:27.837Z,5.93
2022-08-03T22:32:56.344Z,6.97
2022-08-03T22:35:26.313Z,6.95
2022-08-03T22:37:57.534Z,8.25
2022-08-03T22:40:24.847Z,6.43
2022-08-03T22:42:52.741Z,6.70
2022-08-03T22:46:10.628Z,6.68
2022-08-03T22:48:08.396Z,7.22
2022-08-03T22:50:35.925Z,7.18
2022-08-03T22:53:03.529Z,7.30
2022-08-03T22:55:31.122Z,9.18
2022-08-03T22:57:58.281Z,5.07
2022-08-03T23:00:25.807Z,5.93
2022-08-03T23:02:56.925Z,7.30
2022-08-03T23:06:01.692Z,8.82
2022-08-03T23:08:18.918Z,7.00
2022-08-03T23:10:47.475Z,5.10
2022-08-03T23:13:20.013Z,6.03
2022-08-03T23:16:01.420Z,7.20
2022-08-03T23:18:33.009Z,7.68
2022-08-03T23:21:11.638Z,5.30
2022-08-03T23:23:43.831Z,5.20
2022-08-03T23:26:15.710Z,8.38
2022-08-03T23:28:46.998Z,4.38
2022-08-03T23:31:15.571Z,8.23
2022-08-03T23:33:45.585Z,11.07
2022-08-03T23:36:30.768Z,9.38
2022-08-03T23:39:02.200Z,5.80
2022-08-03T23:41:30.896Z,8.40
2022-08-03T23:44:01.231Z,7.30
2022-08-03T23:46:30.427Z,3.80
2022-08-03T23:48:59.944Z,7.18
2022-08-03T23:51:44.141Z,5.32
2022-08-03T23:54:17.208Z,10.23
2022-08-03T23:57:37.609Z,8.40
